Time;durP1;ratioP1;P1;durP2;ratioP2;P2;SDS_P1;SDS_P2;PMS_P1;PMS_P2;Temp;Humidity;BMP_temperature;BMP_pressure;BME280_temperature;BME280_humidity;BME280_pressure;Samples;Min_cycle;Max_cycle;Signal;HPM_P1;HPM_P2
2022/12/23 00:00:38;;;;;;;26.02;12.57;;;3.40;99.90;;;;;;5083175;28;20075;-62
2022/12/23 00:03:05;;;;;;;29.55;13.18;;;3.40;99.90;;;;;;5091437;28;20097;-62
2022/12/23 00:05:36;;;;;;;22.17;12.55;;;3.40;99.90;;;;;;5076159;28;20515;-62
2022/12/23 00:08:04;;;;;;;22.45;12.15;;;3.40;99.90;;;;;;5091533;28;20051;-62
2022/12/23 00:10:33;;;;;;;;;;;3.40;99.90;;;;;;5089773;28;20044;-61
2022/12/23 00:15:45;;;;;;;24.58;11.48;;;3.40;99.90;;;;;;5070444;28;20090;-62
2022/12/23 00:18:11;;;;;;;22.83;12.23;;;3.40;99.90;;;;;;5070980;28;20098;-62
2022/12/23 00:20:38;;;;;;;24.08;12.23;;;3.40;99.90;;;;;;5070567;28;20513;-62
2022/12/23 00:23:05;;;;;;;27.17;12.70;;;3.50;99.90;;;;;;5072032;28;20036;-62
2022/12/23 00:25:40;;;;;;;22.30;11.95;;;3.50;99.90;;;;;;5070042;28;20040;-62
2022/12/23 00:28:17;;;;;;;25.23;12.02;;;3.50;99.90;;;;;;5070852;28;20120;-62
2022/12/23 00:30:50;;;;;;;21.20;11.93;;;3.50;99.90;;;;;;5070441;28;20040;-62
2022/12/23 00:33:19;;;;;;;22.25;11.48;;;3.50;99.90;;;;;;5083597;28;20055;-62
2022/12/23 00:35:46;;;;;;;18.73;11.23;;;3.50;99.90;;;;;;5078312;28;20501;-62
2022/12/23 00:38:14;;;;;;;;;;;3.50;99.90;;;;;;5071317;28;20131;-62
2022/12/23 00:43:27;;;;;;;21.30;11.32;;;3.50;99.90;;;;;;5070673;28;20036;-62
2022/12/23 00:45:53;;;;;;;;;;;3.50;99.90;;;;;;5075401;28;20082;-62
2022/12/23 00:51:05;;;;;;;19.48;10.52;;;3.50;99.90;;;;;;5089251;28;20079;-62
2022/12/23 00:53:32;;;;;;;19.10;10.73;;;3.40;99.90;;;;;;5090679;28;20511;-62
2022/12/23 00:55:59;;;;;;;22.42;10.93;;;3.40;99.90;;;;;;5084543;28;20040;-62
2022/12/23 00:58:26;;;;;;;15.05;7.57;;;3.50;99.90;;;;;;5069848;28;20041;-62
2022/12/23 01:06:23;;;;;;;16.30;9.57;;;3.50;99.90;;;;;;5084912;28;20488;-62
2022/12/23 01:08:50;;;;;;;18.92;10.05;;;3.50;99.90;;;;;;5088313;28;20079;-62
2022/12/23 01:11:17;;;;;;;16.83;8.10;;;3.50;99.90;;;;;;5084722;28;20492;-62
2022/12/23 01:13:43;;;;;;;17.98;10.52;;;3.70;99.90;;;;;;5077731;28;20105;-62
2022/12/23 01:16:10;;;;;;;21.70;10.65;;;3.60;99.90;;;;;;5091121;28;20040;-62
2022/12/23 01:18:43;;;;;;;21.42;10.13;;;3.60;99.90;;;;;;5078962;28;20098;-62
2022/12/23 01:21:12;;;;;;;19.48;10.85;;;3.60;99.90;;;;;;5070959;28;20045;-62
2022/12/23 01:23:39;;;;;;;20.58;10.63;;;3.70;99.90;;;;;;5069350;28;20091;-62
2022/12/23 01:26:07;;;;;;;19.00;10.30;;;3.60;99.90;;;;;;5073184;28;20047;-62
2022/12/23 01:28:35;;;;;;;17.65;9.60;;;3.60;99.90;;;;;;5069829;28;20049;-62
2022/12/23 01:31:03;;;;;;;19.67;10.60;;;3.60;99.90;;;;;;5070725;28;20044;-62
2022/12/23 01:33:31;;;;;;;20.38;9.57;;;3.60;99.90;;;;;;5069198;28;20047;-62
2022/12/23 01:36:00;;;;;;;18.05;9.07;;;3.60;99.90;;;;;;5070612;28;20510;-62
2022/12/23 01:38:27;;;;;;;14.15;7.88;;;3.70;99.90;;;;;;5068940;28;20114;-62
2022/12/23 01:40:54;;;;;;;16.90;7.90;;;3.80;99.90;;;;;;5088359;22;20070;-61
2022/12/23 01:43:49;;;;;;;13.57;7.68;;;4.00;99.90;;;;;;5067918;28;20075;-61
2022/12/23 01:46:16;;;;;;;11.68;6.55;;;4.20;99.90;;;;;;5077261;28;20049;-61
2022/12/23 01:48:49;;;;;;;13.85;7.40;;;4.30;99.90;;;;;;5086017;28;20123;-61
2022/12/23 01:51:28;;;;;;;12.27;7.35;;;4.30;99.90;;;;;;5069737;28;20606;-61
2022/12/23 01:54:00;;;;;;;13.77;8.25;;;4.30;99.90;;;;;;5082374;28;20048;-61
2022/12/23 01:56:30;;;;;;;13.55;7.20;;;4.30;99.90;;;;;;5069546;28;20132;-61
2022/12/23 01:59:08;;;;;;;15.63;7.47;;;4.30;99.90;;;;;;5089059;28;20501;-61
2022/12/23 02:04:23;;;;;;;14.02;7.80;;;4.30;99.90;;;;;;5069446;28;20404;-61
2022/12/23 02:09:38;;;;;;;10.93;6.05;;;4.40;99.90;;;;;;5070303;28;20080;-61
2022/12/23 02:12:20;;;;;;;13.80;6.35;;;4.40;99.90;;;;;;5080478;28;20048;-61
2022/12/23 02:18:46;;;;;;;11.20;5.68;;;4.70;99.90;;;;;;5088848;28;20056;-61
2022/12/23 02:21:34;;;;;;;9.40;5.53;;;4.80;99.90;;;;;;4977547;28;20109;-61
2022/12/23 02:24:19;;;;;;;11.03;5.10;;;4.90;99.90;;;;;;5073254;28;20115;-60
2022/12/23 02:27:10;;;;;;;10.80;4.95;;;5.00;99.90;;;;;;5077850;28;20049;-61
2022/12/23 02:30:09;;;;;;;11.30;5.53;;;5.00;99.90;;;;;;5073163;28;20451;-61
2022/12/23 02:32:51;;;;;;;10.90;5.10;;;5.00;99.90;;;;;;5082020;28;20505;-61
2022/12/23 02:35:36;;;;;;;9.13;4.75;;;5.00;99.90;;;;;;5075258;28;20496;-61
2022/12/23 02:38:08;;;;;;;14.25;4.40;;;5.00;99.90;;;;;;5073550;28;20459;-61
2022/12/23 02:40:50;;;;;;;8.85;4.55;;;5.10;99.90;;;;;;5072430;28;20094;-61
2022/12/23 02:43:22;;;;;;;7.28;3.88;;;5.20;99.90;;;;;;5076072;28;20119;-61
2022/12/23 02:46:12;;;;;;;8.38;4.18;;;5.20;99.90;;;;;;5072684;28;20072;-61
2022/12/23 02:48:43;;;;;;;8.57;3.03;;;5.30;99.90;;;;;;5072656;28;20037;-61
2022/12/23 02:51:13;;;;;;;6.88;4.10;;;5.40;99.90;;;;;;5073129;28;20086;-61
2022/12/23 02:53:50;;;;;;;5.88;3.03;;;5.50;99.90;;;;;;5076134;28;20040;-61
2022/12/23 02:56:18;;;;;;;9.20;4.20;;;5.50;99.90;;;;;;5073932;28;20045;-61
2022/12/23 02:59:00;;;;;;;7.53;3.60;;;5.50;99.90;;;;;;5083915;28;20408;-61
2022/12/23 03:01:29;;;;;;;7.00;4.20;;;5.50;99.90;;;;;;5092372;28;20110;-61
2022/12/23 03:03:56;;;;;;;9.35;3.83;;;5.50;99.90;;;;;;5092410;28;20055;-61
2022/12/23 03:06:31;;;;;;;9.40;4.15;;;5.40;99.90;;;;;;5081130;28;20041;-61
2022/12/23 03:08:59;;;;;;;6.25;3.55;;;5.40;99.90;;;;;;5072077;28;20049;-61
2022/12/23 03:11:38;;;;;;;;;;;5.40;99.90;;;;;;5073179;28;20448;-61
2022/12/23 03:14:08;;;;;;;9.10;4.00;;;5.40;99.90;;;;;;5071981;28;19924;-61
2022/12/23 03:16:50;;;;;;;7.60;3.47;;;5.40;99.90;;;;;;5073462;28;20522;-60
2022/12/23 03:19:37;;;;;;;6.93;3.75;;;5.40;99.90;;;;;;5054139;28;20493;-61
2022/12/23 03:22:31;;;;;;;4.75;3.30;;;5.40;99.90;;;;;;5072911;28;20082;-61
2022/12/23 03:25:24;;;;;;;9.73;3.83;;;5.40;99.90;;;;;;5071974;28;20041;-61
2022/12/23 03:28:14;;;;;;;8.27;3.72;;;5.40;99.90;;;;;;5071538;28;20106;-61
2022/12/23 03:30:46;;;;;;;6.32;3.78;;;5.40;99.90;;;;;;5072734;28;20048;-61
2022/12/23 03:33:39;;;;;;;9.15;3.80;;;5.40;99.90;;;;;;5071215;28;20044;-61
2022/12/23 03:36:15;;;;;;;5.70;3.65;;;5.30;99.90;;;;;;5076055;28;20044;-61
2022/12/23 03:38:44;;;;;;;6.70;4.10;;;5.40;99.90;;;;;;5072166;28;20048;-61
2022/12/23 03:41:17;;;;;;;7.93;3.80;;;5.30;99.90;;;;;;5071113;28;20568;-61
2022/12/23 03:44:07;;;;;;;7.15;4.00;;;5.30;99.90;;;;;;5072118;28;20040;-61
2022/12/23 03:46:45;;;;;;;6.90;4.05;;;5.30;99.90;;;;;;5075044;28;20488;-61
2022/12/23 03:49:15;;;;;;;;;;;5.30;99.90;;;;;;5073019;28;20048;-61
2022/12/23 03:51:59;;;;;;;10.30;4.05;;;5.30;99.90;;;;;;5070795;28;19932;-61
2022/12/23 03:54:33;;;;;;;6.43;4.30;;;5.30;99.90;;;;;;5076956;28;20052;-61
2022/12/23 03:57:03;;;;;;;10.13;4.40;;;5.30;99.90;;;;;;5070313;28;20056;-61
2022/12/23 03:59:37;;;;;;;11.27;4.63;;;5.40;99.90;;;;;;5071158;28;20076;-61
2022/12/23 04:02:25;;;;;;;8.07;4.45;;;5.30;99.90;;;;;;5069915;28;20451;-61
2022/12/23 04:04:52;;;;;;;;;;;5.30;99.90;;;;;;5072503;28;20066;-61
2022/12/23 04:07:24;;;;;;;7.72;4.28;;;5.30;99.90;;;;;;5084468;28;19920;-61
2022/12/23 04:09:52;;;;;;;7.57;4.28;;;5.30;99.90;;;;;;5092209;28;20447;-61
2022/12/23 04:12:23;;;;;;;8.65;4.20;;;5.30;99.90;;;;;;5090880;28;20039;-61
2022/12/23 04:14:50;;;;;;;7.55;4.40;;;5.40;99.90;;;;;;5084724;28;21495;-61
2022/12/23 04:17:18;;;;;;;6.35;4.03;;;5.30;99.90;;;;;;5053367;28;20040;-61
2022/12/23 04:19:45;;;;;;;9.30;4.05;;;5.30;99.90;;;;;;5071385;28;20102;-61
2022/12/23 04:22:14;;;;;;;12.95;4.78;;;5.40;99.90;;;;;;5060772;28;20048;-61
2022/12/23 04:24:41;;;;;;;9.48;4.15;;;5.40;99.90;;;;;;5081330;28;20097;-61
2022/12/23 04:27:11;;;;;;;7.03;3.80;;;5.40;99.90;;;;;;5082827;28;20442;-61
2022/12/23 04:29:38;;;;;;;7.70;4.70;;;5.40;99.90;;;;;;5091151;28;20490;-61
2022/12/23 04:32:06;;;;;;;8.85;3.45;;;5.40;99.90;;;;;;5087501;28;20051;-61
2022/12/23 04:34:33;;;;;;;5.63;3.90;;;5.40;99.90;;;;;;5086428;28;20177;-61
2022/12/23 04:37:00;;;;;;;6.03;3.40;;;5.40;99.90;;;;;;5085911;28;20068;-61
2022/12/23 04:39:26;;;;;;;5.93;3.80;;;5.40;99.90;;;;;;5080502;28;20040;-61
2022/12/23 04:41:53;;;;;;;11.80;3.75;;;5.40;99.90;;;;;;5070937;28;20044;-61
2022/12/23 04:44:20;;;;;;;8.57;3.65;;;5.40;99.90;;;;;;5069643;28;20048;-61
2022/12/23 04:46:46;;;;;;;5.80;2.95;;;5.40;99.90;;;;;;5071393;28;20048;-61
2022/12/23 04:49:13;;;;;;;6.47;3.67;;;5.40;99.90;;;;;;5070324;28;20119;-61
2022/12/23 04:51:40;;;;;;;5.85;3.70;;;5.40;99.90;;;;;;5077912;28;20044;-61
2022/12/23 04:54:06;;;;;;;5.35;4.03;;;5.50;99.90;;;;;;5077918;28;20067;-61
2022/12/23 04:56:33;;;;;;;7.57;3.53;;;5.50;99.90;;;;;;5077330;28;20036;-61
2022/12/23 04:59:01;;;;;;;5.32;3.08;;;5.50;99.90;;;;;;5075722;28;20072;-61
2022/12/23 05:01:28;;;;;;;5.07;3.22;;;5.50;99.90;;;;;;5076073;28;20043;-61
2022/12/23 05:03:55;;;;;;;6.43;3.80;;;5.50;99.90;;;;;;5076715;28;20455;-61
2022/12/23 05:06:22;;;;;;;6.05;3.53;;;5.50;99.90;;;;;;5082739;28;20040;-61
2022/12/23 05:08:48;;;;;;;7.63;3.15;;;5.60;99.90;;;;;;5083724;28;20082;-61
2022/12/23 05:11:15;;;;;;;8.88;3.50;;;5.60;99.90;;;;;;5089276;28;20112;-61
2022/12/23 05:13:42;;;;;;;3.70;2.85;;;5.60;99.90;;;;;;5087373;28;20396;-61
2022/12/23 05:16:08;;;;;;;4.32;3.13;;;5.70;99.90;;;;;;5079020;28;20044;-61
2022/12/23 05:18:35;;;;;;;5.18;3.20;;;5.60;99.90;;;;;;5073423;28;20045;-61
2022/12/23 05:21:02;;;;;;;4.85;2.83;;;5.60;99.90;;;;;;5079392;28;20044;-61
2022/12/23 05:23:29;;;;;;;9.25;4.13;;;5.60;99.90;;;;;;5073323;28;20024;-61
2022/12/23 05:25:55;;;;;;;7.45;3.63;;;5.60;99.90;;;;;;5072003;28;20067;-61
2022/12/23 05:28:22;;;;;;;5.88;3.67;;;5.60;99.90;;;;;;5082428;28;20501;-61
2022/12/23 05:30:56;;;;;;;4.90;3.38;;;5.60;99.90;;;;;;5088779;28;20091;-61
2022/12/23 05:33:23;;;;;;;6.13;3.08;;;5.60;99.90;;;;;;5069430;28;20101;-61
2022/12/23 05:35:50;;;;;;;5.65;3.45;;;5.50;99.90;;;;;;5052235;28;20056;-61
2022/12/23 05:38:16;;;;;;;6.15;3.35;;;5.60;99.90;;;;;;5076351;28;20569;-61
2022/12/23 05:40:43;;;;;;;5.25;3.20;;;5.60;99.90;;;;;;5086302;28;20037;-61
2022/12/23 05:43:10;;;;;;;3.92;3.08;;;5.60;99.90;;;;;;5069590;28;20033;-60
2022/12/23 05:45:37;;;;;;;5.72;2.85;;;5.60;99.90;;;;;;5078227;28;20504;-61
2022/12/23 05:48:04;;;;;;;6.13;2.97;;;5.70;99.90;;;;;;5070291;28;20044;-61
2022/12/23 05:50:30;;;;;;;4.90;3.05;;;5.60;99.90;;;;;;5077230;28;20082;-61
2022/12/23 05:53:00;;;;;;;5.43;2.95;;;5.60;99.90;;;;;;5071774;28;20451;-61
2022/12/23 05:55:27;;;;;;;6.65;2.83;;;5.60;99.90;;;;;;5072544;28;20028;-61
2022/12/23 05:57:54;;;;;;;10.50;3.38;;;5.70;99.90;;;;;;5062708;28;20048;-60
2022/12/23 06:00:20;;;;;;;7.78;2.60;;;5.70;99.90;;;;;;5078737;28;20120;-60
2022/12/23 06:02:47;;;;;;;3.47;2.65;;;5.70;99.90;;;;;;5076611;28;20044;-60
2022/12/23 06:05:20;;;;;;;4.80;2.78;;;5.70;99.90;;;;;;5080270;28;20037;-61
2022/12/23 06:07:47;;;;;;;4.55;2.45;;;5.70;99.90;;;;;;5073423;28;20041;-60
2022/12/23 06:10:14;;;;;;;5.50;2.85;;;5.70;99.90;;;;;;5072445;28;20101;-60
2022/12/23 06:12:41;;;;;;;4.50;2.28;;;5.80;99.90;;;;;;5072454;28;20098;-60
2022/12/23 06:15:08;;;;;;;2.97;1.80;;;5.70;99.90;;;;;;5073306;28;20052;-60
2022/12/23 06:17:35;;;;;;;3.50;2.38;;;5.80;99.90;;;;;;5073125;28;20094;-61
2022/12/23 06:20:03;;;;;;;3.28;2.00;;;5.80;99.90;;;;;;5073425;28;20458;-61
2022/12/23 06:22:30;;;;;;;3.40;2.40;;;5.80;99.90;;;;;;5088008;28;20051;-61
2022/12/23 06:24:57;;;;;;;5.13;2.53;;;5.80;99.90;;;;;;5074603;28;20102;-61
2022/12/23 06:27:23;;;;;;;6.68;4.22;;;5.80;99.90;;;;;;5055538;28;20083;-61
2022/12/23 06:29:50;;;;;;;2.88;2.00;;;5.90;99.90;;;;;;5079551;28;20047;-60
2022/12/23 06:32:17;;;;;;;8.88;4.00;;;5.90;99.90;;;;;;5073170;28;20587;-61
2022/12/23 06:34:45;;;;;;;4.63;2.70;;;5.90;99.90;;;;;;5071883;28;20040;-61
2022/12/23 06:37:12;;;;;;;15.98;7.30;;;5.90;99.90;;;;;;5073680;28;20048;-60
2022/12/23 06:39:38;;;;;;;7.05;3.95;;;5.90;99.90;;;;;;5053145;28;20098;-61
2022/12/23 06:42:05;;;;;;;2.28;1.75;;;5.90;99.90;;;;;;5074941;28;20044;-61
2022/12/23 06:44:32;;;;;;;3.60;2.47;;;5.90;99.90;;;;;;5077677;28;20154;-61
2022/12/23 06:46:58;;;;;;;3.38;2.15;;;6.00;99.90;;;;;;5073442;28;20048;-61
2022/12/23 06:49:25;;;;;;;7.00;3.60;;;5.90;99.90;;;;;;5072495;28;20053;-62
2022/12/23 06:51:52;;;;;;;8.30;4.40;;;5.90;99.90;;;;;;5080592;28;20160;-62
2022/12/23 06:54:18;;;;;;;7.53;3.45;;;5.90;99.90;;;;;;5072527;28;20040;-61
2022/12/23 06:56:45;;;;;;;7.72;3.42;;;6.00;99.90;;;;;;5073331;28;20041;-61
2022/12/23 06:59:12;;;;;;;5.97;2.92;;;6.00;99.90;;;;;;5078675;28;20157;-61
2022/12/23 07:01:39;;;;;;;4.70;2.67;;;6.00;99.90;;;;;;5072096;28;20044;-61
2022/12/23 07:04:06;;;;;;;4.28;2.08;;;6.00;99.90;;;;;;5064198;28;20032;-61
2022/12/23 07:06:33;;;;;;;5.07;3.10;;;6.00;99.90;;;;;;5077712;28;20047;-62
2022/12/23 07:09:00;;;;;;;4.18;2.35;;;6.00;99.90;;;;;;5071739;28;20091;-61
2022/12/23 07:11:26;;;;;;;8.63;3.13;;;6.00;99.90;;;;;;5085269;28;20301;-61
2022/12/23 07:13:53;;;;;;;8.48;3.60;;;6.00;99.90;;;;;;5075168;28;20052;-60
2022/12/23 07:16:20;;;;;;;6.65;3.33;;;6.00;99.90;;;;;;5090411;28;20086;-61
2022/12/23 07:18:47;;;;;;;7.82;3.80;;;6.00;99.90;;;;;;5079756;28;20097;-62
2022/12/23 07:21:13;;;;;;;7.15;3.42;;;5.90;99.90;;;;;;5075128;28;20505;-61
2022/12/23 07:23:54;;;;;;;7.25;3.05;;;5.90;99.90;;;;;;5071300;28;20040;-61
2022/12/23 07:26:20;;;;;;;5.20;2.70;;;5.90;99.90;;;;;;5071653;28;20040;-61
2022/12/23 07:28:47;;;;;;;4.85;3.22;;;5.90;99.90;;;;;;5072131;28;20068;-61
2022/12/23 07:31:14;;;;;;;5.10;3.47;;;6.00;99.90;;;;;;5084376;28;20039;-61
2022/12/23 07:33:41;;;;;;;3.30;2.95;;;5.90;99.90;;;;;;5091626;28;20051;-61
2022/12/23 07:36:08;;;;;;;5.75;2.72;;;5.90;99.90;;;;;;5061558;28;20101;-61
2022/12/23 07:38:35;;;;;;;5.95;2.53;;;6.00;99.90;;;;;;5071719;28;20071;-61
2022/12/23 07:41:02;;;;;;;5.00;3.60;;;6.00;99.90;;;;;;5090259;22;20024;-62
2022/12/23 07:43:29;;;;;;;5.00;2.90;;;6.00;99.90;;;;;;5105383;28;20044;-62
2022/12/23 07:45:55;;;;;;;9.43;2.70;;;6.10;99.90;;;;;;5110237;28;20040;-62
2022/12/23 07:48:26;;;;;;;7.72;3.08;;;6.10;99.90;;;;;;5097989;28;20064;-62
2022/12/23 07:51:02;;;;;;;4.88;2.95;;;6.10;99.90;;;;;;5099127;28;20050;-62
2022/12/23 07:53:29;;;;;;;5.55;2.95;;;6.10;99.90;;;;;;5083234;28;20052;-62
2022/12/23 07:55:56;;;;;;;6.88;3.70;;;6.20;99.90;;;;;;5092183;28;20055;-62
2022/12/23 07:58:23;;;;;;;4.30;2.30;;;6.10;99.90;;;;;;5076352;28;20493;-62
2022/12/23 08:00:57;;;;;;;3.88;2.40;;;6.10;99.90;;;;;;5071394;28;20043;-62
2022/12/23 08:03:24;;;;;;;7.05;3.33;;;6.10;99.90;;;;;;5052725;28;20098;-62
2022/12/23 08:06:06;;;;;;;5.13;2.97;;;6.10;99.90;;;;;;5071989;28;20046;-62
2022/12/23 08:08:34;;;;;;;6.38;3.35;;;6.00;99.90;;;;;;5071953;28;20045;-62
2022/12/23 08:11:05;;;;;;;4.95;2.70;;;6.00;99.90;;;;;;5070905;28;20094;-62
2022/12/23 08:13:36;;;;;;;3.55;2.78;;;5.90;99.90;;;;;;5071645;28;20098;-62
2022/12/23 08:16:04;;;;;;;3.83;2.95;;;6.00;99.90;;;;;;5070795;28;20501;-62
2022/12/23 08:18:34;;;;;;;4.93;2.40;;;6.00;99.90;;;;;;5071873;28;20052;-62
2022/12/23 08:21:03;;;;;;;4.53;1.85;;;6.00;99.90;;;;;;5070190;28;20102;-62
2022/12/23 08:23:31;;;;;;;5.18;1.40;;;6.10;99.90;;;;;;5064044;28;20043;-62
2022/12/23 08:26:03;;;;;;;5.50;2.50;;;6.10;99.90;;;;;;5070166;28;20032;-62
2022/12/23 08:28:31;;;;;;;3.55;2.03;;;6.10;99.90;;;;;;5053202;28;20037;-62
2022/12/23 08:31:09;;;;;;;3.05;1.85;;;6.10;99.90;;;;;;5070352;28;20461;-62
2022/12/23 08:33:37;;;;;;;6.35;3.33;;;6.20;99.90;;;;;;5072088;28;20068;-62
2022/12/23 08:36:06;;;;;;;4.43;2.78;;;6.20;99.90;;;;;;5071108;28;20036;-62
2022/12/23 08:38:33;;;;;;;5.25;3.60;;;6.20;99.90;;;;;;5070050;28;20032;-62
2022/12/23 08:41:00;;;;;;;3.15;1.73;;;6.20;99.90;;;;;;5070520;28;20130;-62
2022/12/23 08:43:27;;;;;;;2.42;1.75;;;6.20;99.90;;;;;;5069796;28;20040;-62
2022/12/23 08:46:02;;;;;;;3.63;1.83;;;6.20;99.90;;;;;;5070311;28;20090;-62
2022/12/23 08:48:28;;;;;;;;;;;6.20;99.90;;;;;;5074865;28;20413;-62
2022/12/23 08:50:55;;;;;;;4.47;2.00;;;6.20;99.90;;;;;;5070359;28;19943;-62
2022/12/23 08:53:22;;;;;;;4.80;2.10;;;6.20;99.90;;;;;;5070402;28;20049;-62
2022/12/23 08:55:48;;;;;;;5.70;2.00;;;6.20;99.90;;;;;;5070591;28;20554;-62
2022/12/23 08:58:15;;;;;;;2.67;1.70;;;6.30;99.90;;;;;;5070879;28;20048;-62
2022/12/23 09:00:42;;;;;;;3.10;1.60;;;6.30;99.90;;;;;;5073529;28;20090;-62
2022/12/23 09:03:08;;;;;;;4.50;2.42;;;6.40;99.90;;;;;;5075963;28;20086;-62
2022/12/23 09:05:40;;;;;;;5.25;2.50;;;6.40;99.90;;;;;;5076717;28;20544;-62
2022/12/23 09:08:08;;;;;;;4.38;2.28;;;6.40;99.90;;;;;;5076941;28;20078;-62
2022/12/23 09:10:42;;;;;;;3.42;1.60;;;6.40;99.90;;;;;;5080697;28;20499;-62
2022/12/23 09:13:10;;;;;;;4.22;2.30;;;6.40;99.90;;;;;;5079835;28;20408;-62
2022/12/23 09:15:44;;;;;;;3.20;2.00;;;6.50;99.90;;;;;;5074123;28;20551;-62
2022/12/23 09:18:11;;;;;;;8.73;2.17;;;6.50;99.90;;;;;;5068691;28;20048;-62
2022/12/23 09:20:38;;;;;;;6.97;3.28;;;6.50;99.90;;;;;;5077732;28;20071;-62
2022/12/23 09:23:05;;;;;;;5.75;2.60;;;6.60;99.90;;;;;;5085845;28;20448;-62
2022/12/23 09:25:34;;;;;;;4.30;2.38;;;6.60;99.90;;;;;;5068931;28;20045;-62
2022/12/23 09:28:00;;;;;;;5.80;2.22;;;6.60;99.90;;;;;;5088306;28;20048;-62
2022/12/23 09:30:27;;;;;;;7.65;2.42;;;6.60;99.90;;;;;;5091275;28;20048;-62
2022/12/23 09:32:54;;;;;;;16.25;5.47;;;6.60;99.90;;;;;;5084181;28;20075;-62
2022/12/23 09:35:20;;;;;;;12.18;5.45;;;6.60;99.90;;;;;;5075660;28;20036;-62
2022/12/23 09:37:47;;;;;;;5.03;2.97;;;6.50;99.90;;;;;;5088204;28;20455;-62
2022/12/23 09:40:17;;;;;;;8.30;3.38;;;6.50;99.90;;;;;;5060470;28;20029;-62
2022/12/23 09:43:22;;;;;;;7.03;3.55;;;6.50;99.90;;;;;;5066269;28;20461;-62
2022/12/23 09:46:07;;;;;;;7.18;3.67;;;6.50;99.90;;;;;;5087828;28;20101;-62
2022/12/23 09:48:55;;;;;;;13.85;6.80;;;6.50;99.90;;;;;;5088227;28;20396;-62
2022/12/23 09:51:22;;;;;;;14.37;8.60;;;6.50;99.90;;;;;;5076861;28;20045;-63
2022/12/23 09:54:05;;;;;;;12.23;5.40;;;6.50;99.90;;;;;;5069762;28;20052;-62
2022/12/23 09:56:52;;;;;;;9.75;5.00;;;6.50;99.90;;;;;;5082301;28;20048;-62
2022/12/23 09:59:26;;;;;;;8.00;3.90;;;6.50;99.90;;;;;;5070596;28;20049;-62
2022/12/23 10:02:22;;;;;;;8.00;3.92;;;6.50;99.90;;;;;;5067816;28;20044;-62
2022/12/23 10:05:07;;;;;;;8.35;4.35;;;6.60;99.90;;;;;;5060669;28;20052;-62
2022/12/23 10:07:48;;;;;;;4.95;3.67;;;6.60;99.90;;;;;;5073115;28;20033;-62
2022/12/23 10:10:30;;;;;;;6.20;3.75;;;6.60;99.90;;;;;;5070260;28;20062;-62
2022/12/23 10:13:02;;;;;;;7.32;3.35;;;6.60;99.90;;;;;;5069182;28;20403;-62
2022/12/23 10:15:44;;;;;;;11.52;3.03;;;6.70;99.90;;;;;;5077319;28;20041;-62
2022/12/23 10:18:36;;;;;;;6.95;3.63;;;6.70;99.90;;;;;;5070262;28;20043;-62
2022/12/23 10:21:09;;;;;;;6.72;3.70;;;6.70;99.90;;;;;;5068651;28;20488;-62
2022/12/23 10:23:38;;;;;;;9.77;4.13;;;6.80;99.90;;;;;;5069900;28;20080;-62
2022/12/23 10:26:22;;;;;;;6.38;3.75;;;6.80;99.90;;;;;;5069714;28;20037;-62
2022/12/23 10:28:53;;;;;;;9.38;3.80;;;6.90;99.90;;;;;;5070106;28;20086;-62
2022/12/23 10:31:34;;;;;;;6.85;3.97;;;6.90;99.90;;;;;;5069333;28;20086;-62
2022/12/23 10:34:16;;;;;;;21.80;8.55;;;6.90;99.90;;;;;;5071353;28;20132;-62
2022/12/23 10:36:57;;;;;;;14.88;7.78;;;6.90;99.90;;;;;;5069436;28;20044;-62
2022/12/23 10:39:43;;;;;;;8.63;5.13;;;6.90;99.90;;;;;;5078789;28;20048;-62
2022/12/23 10:42:16;;;;;;;13.77;7.05;;;6.70;99.90;;;;;;5072498;28;20044;-62
2022/12/23 10:44:45;;;;;;;10.27;4.93;;;6.70;99.90;;;;;;5077381;28;20037;-62
2022/12/23 10:47:35;;;;;;;14.18;6.90;;;6.70;99.90;;;;;;5073786;28;20063;-62
2022/12/23 10:50:13;;;;;;;14.00;7.43;;;6.70;99.90;;;;;;5071995;28;20558;-62
2022/12/23 10:52:41;;;;;;;;;;;6.90;99.90;;;;;;5075445;28;20122;-62
2022/12/23 10:55:24;;;;;;;8.50;5.60;;;7.00;99.90;;;;;;5072382;28;19920;-62
2022/12/23 10:58:17;;;;;;;12.10;5.97;;;7.00;99.90;;;;;;5082968;28;20380;-62
2022/12/23 11:00:55;;;;;;;10.00;4.82;;;7.10;99.90;;;;;;5092441;28;20056;-62
2022/12/23 11:03:28;;;;;;;10.43;5.25;;;7.20;99.90;;;;;;5090608;28;20504;-62
2022/12/23 11:05:57;;;;;;;9.32;4.25;;;7.20;99.90;;;;;;5092715;28;20043;-62
2022/12/23 11:08:26;;;;;;;9.50;4.93;;;7.20;99.90;;;;;;5091388;28;20059;-62
2022/12/23 11:10:53;;;;;;;11.95;5.57;;;7.30;99.90;;;;;;5092746;28;20040;-62
2022/12/23 11:13:38;;;;;;;11.20;5.75;;;7.20;99.90;;;;;;5082101;28;20105;-62
2022/12/23 11:16:26;;;;;;;12.27;6.75;;;7.20;99.90;;;;;;5093193;28;20052;-62
2022/12/23 11:19:14;;;;;;;14.43;8.07;;;7.30;99.90;;;;;;5090269;28;20120;-62
2022/12/23 11:21:54;;;;;;;12.63;6.97;;;7.50;99.90;;;;;;5090473;28;20082;-62
2022/12/23 11:24:22;;;;;;;13.55;6.20;;;7.60;99.90;;;;;;5071541;28;20094;-62
2022/12/23 11:27:00;;;;;;;6.45;4.65;;;7.80;99.90;;;;;;5071846;28;20040;-62
2022/12/23 11:29:35;;;;;;;9.20;5.22;;;7.70;99.90;;;;;;5072042;28;20036;-62
2022/12/23 11:32:14;;;;;;;9.75;5.00;;;7.70;99.90;;;;;;5071765;28;20485;-62
2022/12/23 11:34:45;;;;;;;7.40;4.53;;;7.70;99.90;;;;;;5073544;28;20037;-62
2022/12/23 11:37:36;;;;;;;8.40;4.28;;;7.70;99.90;;;;;;5071334;28;20048;-62
2022/12/23 11:40:05;;;;;;;7.28;4.00;;;7.80;99.90;;;;;;5072971;28;20085;-62
2022/12/23 11:42:33;;;;;;;9.60;4.97;;;8.00;99.90;;;;;;5077454;28;20117;-62
2022/12/23 11:45:00;;;;;;;9.18;4.68;;;8.20;99.90;;;;;;5082796;28;20036;-62
2022/12/23 11:47:39;;;;;;;10.48;4.45;;;8.30;99.90;;;;;;5091379;28;20090;-62
2022/12/23 11:50:37;;;;;;;13.07;5.40;;;8.20;99.90;;;;;;5089590;28;20055;-62
2022/12/23 11:53:20;;;;;;;11.68;5.05;;;8.00;99.90;;;;;;5061980;28;20057;-62
2022/12/23 11:55:56;;;;;;;11.57;5.70;;;8.00;99.90;;;;;;5092435;28;20443;-62
2022/12/23 11:58:24;;;;;;;14.05;6.97;;;7.90;99.90;;;;;;5076625;28;20025;-62
2022/12/23 12:00:57;;;;;;;13.25;7.88;;;7.70;99.90;;;;;;5071695;28;20072;-62
2022/12/23 12:03:31;;;;;;;13.63;8.10;;;7.70;99.90;;;;;;5071105;28;20094;-62
2022/12/23 12:06:02;;;;;;;17.70;8.38;;;7.70;99.90;;;;;;5079303;28;20040;-62
2022/12/23 12:08:34;;;;;;;12.88;8.38;;;7.90;99.90;;;;;;5068202;28;20051;-62
2022/12/23 12:11:13;;;;;;;10.02;6.40;;;8.00;99.90;;;;;;5091191;28;20089;-62
2022/12/23 12:13:42;;;;;;;11.63;5.47;;;8.00;99.90;;;;;;5074504;28;20052;-62
2022/12/23 12:16:29;;;;;;;10.48;7.05;;;8.00;99.90;;;;;;5070564;28;20106;-62
2022/12/23 12:19:22;;;;;;;6.88;4.22;;;7.90;99.90;;;;;;5038321;28;20106;-62
2022/12/23 12:21:52;;;;;;;10.65;5.90;;;7.90;99.90;;;;;;5076316;28;20512;-62
2022/12/23 12:24:27;;;;;;;13.43;6.00;;;7.90;99.90;;;;;;5091768;28;20044;-62
2022/12/23 12:26:59;;;;;;;10.73;4.90;;;7.90;99.90;;;;;;5076108;28;20044;-62
2022/12/23 12:29:38;;;;;;;8.55;4.53;;;8.00;99.90;;;;;;5070309;28;20086;-62
2022/12/23 12:32:15;;;;;;;13.00;5.97;;;8.00;99.90;;;;;;5069258;28;20048;-62
2022/12/23 12:35:19;;;;;;;5.85;3.05;;;8.00;99.90;;;;;;5078803;28;20558;-62
2022/12/23 12:38:03;;;;;;;8.38;4.22;;;8.10;99.90;;;;;;5087593;28;20117;-62
2022/12/23 12:40:37;;;;;;;6.45;3.83;;;8.20;99.90;;;;;;5091012;28;20509;-62
2022/12/23 12:43:24;;;;;;;9.38;5.05;;;8.10;99.90;;;;;;5088555;28;20518;-62
2022/12/23 12:46:22;;;;;;;6.05;3.58;;;8.10;99.90;;;;;;5063632;28;20044;-62
2022/12/23 12:49:14;;;;;;;8.32;4.05;;;8.00;99.90;;;;;;5071033;28;20055;-62
2022/12/23 12:52:20;;;;;;;9.23;3.78;;;8.00;99.90;;;;;;5076724;28;20496;-62
2022/12/23 12:55:12;;;;;;;5.03;2.95;;;8.00;99.90;;;;;;5082040;28;20074;-62
2022/12/23 12:57:39;;;;;;;8.52;2.70;;;7.90;99.90;;;;;;5090794;28;20558;-62
2022/12/23 13:00:19;;;;;;;5.63;3.17;;;7.80;99.90;;;;;;5086193;28;20426;-62
2022/12/23 13:03:08;;;;;;;4.93;3.08;;;7.90;99.90;;;;;;5070374;28;20044;-62
2022/12/23 13:05:42;;;;;;;;;;;7.90;99.90;;;;;;5070252;28;20068;-62
2022/12/23 13:08:48;;;;;;;5.97;3.38;;;7.80;99.90;;;;;;5071512;28;20442;-62
2022/12/23 13:11:23;;;;;;;5.10;3.22;;;7.80;99.90;;;;;;5086351;28;20469;-62
2022/12/23 13:14:05;;;;;;;4.68;3.13;;;7.80;99.90;;;;;;5085519;28;20382;-62
2022/12/23 13:16:35;;;;;;;4.82;2.67;;;7.80;99.90;;;;;;5075979;28;20041;-62
2022/12/23 13:19:14;;;;;;;5.57;3.00;;;7.70;99.90;;;;;;5069373;28;20076;-62
2022/12/23 13:22:07;;;;;;;6.35;3.33;;;7.80;99.90;;;;;;5069802;28;20045;-62
2022/12/23 13:25:10;;;;;;;6.45;3.60;;;7.70;99.90;;;;;;5069802;28;20041;-62
2022/12/23 13:27:56;;;;;;;10.70;4.88;;;7.70;99.90;;;;;;5070009;28;20040;-62
2022/12/23 13:30:30;;;;;;;17.55;9.85;;;7.70;99.90;;;;;;5073589;28;20091;-62
2022/12/23 13:33:06;;;;;;;28.02;12.57;;;7.50;99.90;;;;;;5070582;28;20083;-62
2022/12/23 13:36:07;;;;;;;53.15;19.85;;;7.40;99.90;;;;;;5071159;28;20040;-62
2022/12/23 13:39:00;;;;;;;41.15;16.52;;;7.30;99.90;;;;;;5069427;28;20115;-62
2022/12/23 13:41:39;;;;;;;23.15;11.50;;;7.30;99.90;;;;;;5093094;22;20116;-61
2022/12/23 13:44:12;;;;;;;26.77;12.13;;;7.30;99.90;;;;;;5091644;28;20146;-61
2022/12/23 13:46:58;;;;;;;23.02;10.95;;;7.30;99.90;;;;;;5094031;28;20501;-61
2022/12/23 13:50:02;;;;;;;17.40;9.43;;;7.20;99.90;;;;;;5090764;28;20032;-61